Time;durP1;ratioP1;P1;durP2;ratioP2;P2;SDS_P1;SDS_P2;PMS_P1;PMS_P2;Temp;Humidity;BMP_temperature;BMP_pressure;BME280_temperature;BME280_humidity;BME280_pressure;Samples;Min_cycle;Max_cycle;Signal;HPM_P1;HPM_P2
2021/12/06 00:00:24;;;;;;;99.90;33.63;;;;;;;3.48;63.67;99243.00;5045711;28;20102;-69
2021/12/06 00:02:53;;;;;;;97.57;31.92;;;;;;;3.49;63.57;99245.50;5044383;28;20051;-69
2021/12/06 00:05:20;;;;;;;112.43;36.65;;;;;;;3.50;63.38;99247.19;5046055;28;20730;-69
2021/12/06 00:07:48;;;;;;;80.13;27.38;;;;;;;3.50;63.66;99247.19;5044570;28;20537;-72
2021/12/06 00:10:15;;;;;;;104.30;33.97;;;;;;;3.45;63.73;99252.66;5045391;28;20096;-72
2021/12/06 00:12:43;;;;;;;128.50;36.63;;;;;;;3.49;63.64;99260.31;5045496;28;20060;-70
2021/12/06 00:15:11;;;;;;;92.90;34.45;;;;;;;3.55;63.61;99268.63;5045022;28;20496;-71
2021/12/06 00:17:40;;;;;;;84.82;28.40;;;;;;;3.59;63.45;99269.28;5044555;28;20049;-68
2021/12/06 00:20:12;;;;;;;106.60;39.90;;;;;;;3.60;63.35;99271.81;5045749;28;20681;-70
2021/12/06 00:22:39;;;;;;;116.28;36.63;;;;;;;3.61;63.40;99268.25;5045171;28;20045;-68
2021/12/06 00:25:09;;;;;;;94.97;34.97;;;;;;;3.61;63.47;99262.22;5044853;28;20471;-70
2021/12/06 00:27:39;;;;;;;101.30;37.80;;;;;;;3.57;63.61;99258.94;5046274;28;20131;-70
2021/12/06 00:30:09;;;;;;;96.13;32.97;;;;;;;3.55;63.55;99252.16;5044848;28;20159;-72
2021/12/06 00:32:36;;;;;;;125.80;36.78;;;;;;;3.52;63.79;99244.47;5045255;28;20056;-69
2021/12/06 00:35:11;;;;;;;98.70;33.00;;;;;;;3.55;63.56;99247.75;5044818;28;20118;-70
2021/12/06 00:37:44;;;;;;;122.43;36.17;;;;;;;3.55;63.46;99250.38;5044332;28;20114;-68
2021/12/06 00:40:12;;;;;;;97.00;35.75;;;;;;;3.55;63.52;99250.38;5045910;28;20049;-68
2021/12/06 00:42:39;;;;;;;113.30;37.08;;;;;;;3.56;63.65;99246.81;5046045;28;20051;-70
2021/12/06 00:45:08;;;;;;;153.48;52.70;;;;;;;3.56;63.82;99249.41;5046042;28;20055;-73
2021/12/06 00:47:35;;;;;;;122.78;37.10;;;;;;;3.55;63.84;99257.38;5045205;28;20049;-71
2021/12/06 00:50:05;;;;;;;164.73;59.40;;;;;;;3.54;64.10;99255.66;5045379;28;20608;-71
2021/12/06 00:52:32;;;;;;;140.55;44.15;;;;;;;3.55;63.97;99252.97;5046129;28;20438;-71
2021/12/06 00:55:00;;;;;;;110.97;40.20;;;;;;;3.61;63.89;99263.03;5045773;28;20048;-69
2021/12/06 00:57:27;;;;;;;129.25;38.80;;;;;;;3.67;63.80;99267.06;5045658;28;20045;-69
2021/12/06 00:59:54;;;;;;;112.07;34.42;;;;;;;3.66;63.78;99277.63;5045135;28;20083;-69
2021/12/06 01:02:21;;;;;;;145.57;41.65;;;;;;;3.67;63.93;99279.28;5045286;28;20045;-68
2021/12/06 01:04:49;;;;;;;122.00;39.67;;;;;;;3.63;63.93;99278.63;5045859;28;20055;-69
2021/12/06 01:07:18;;;;;;;116.85;39.88;;;;;;;3.63;63.97;99282.06;5044610;28;20053;-71
2021/12/06 01:09:45;;;;;;;135.10;41.95;;;;;;;3.70;63.92;99281.72;5046371;28;20045;-70
2021/12/06 01:12:12;;;;;;;85.78;35.35;;;;;;;3.75;63.62;99283.13;5045343;28;20128;-71
2021/12/06 01:14:39;;;;;;;119.30;41.60;;;;;;;3.85;63.67;99280.78;5045921;28;20476;-70
2021/12/06 01:17:07;;;;;;;116.47;37.63;;;;;;;3.88;63.64;99285.81;5046192;28;20072;-68
2021/12/06 01:19:36;;;;;;;110.70;37.88;;;;;;;3.86;63.57;99282.47;5045390;28;20546;-71
2021/12/06 01:22:16;;;;;;;141.90;36.53;;;;;;;3.79;63.43;99281.16;5045388;28;20044;-70
2021/12/06 01:24:51;;;;;;;97.50;33.13;;;;;;;3.74;63.81;99286.66;5045498;28;20071;-69
2021/12/06 01:27:37;;;;;;;105.63;34.50;;;;;;;3.69;63.68;99293.94;5045883;28;20669;-65
2021/12/06 01:30:26;;;;;;;122.90;34.72;;;;;;;3.69;63.75;99295.69;5044621;28;20045;-69
2021/12/06 01:33:28;;;;;;;110.63;34.58;;;;;;;3.72;63.75;99291.13;5045080;28;20049;-68
2021/12/06 01:41:23;;;;;;;102.03;33.60;;;;;;;3.78;63.61;99300.38;5044637;28;20088;-68
2021/12/06 01:44:04;;;;;;;124.72;38.53;;;;;;;3.72;63.82;99293.72;5044825;28;20696;-70
2021/12/06 01:46:32;;;;;;;123.93;35.65;;;;;;;3.73;63.73;99298.03;5044349;28;20097;-68
2021/12/06 01:48:59;;;;;;;97.80;34.65;;;;;;;3.74;63.77;99285.81;5045115;28;20068;-69
2021/12/06 01:51:27;;;;;;;116.50;36.63;;;;;;;3.74;63.65;99289.25;5044492;28;20241;-69
2021/12/06 01:53:54;;;;;;;141.60;46.88;;;;;;;3.76;63.80;99291.78;5044927;28;20053;-69
2021/12/06 01:56:23;;;;;;;155.90;51.65;;;;;;;3.70;64.16;99306.06;5044791;28;20424;-68
2021/12/06 01:58:50;;;;;;;181.02;57.88;;;;;;;3.63;64.41;99295.13;5047277;28;20049;-69
2021/12/06 02:01:17;;;;;;;156.35;45.38;;;;;;;3.64;64.34;99295.97;5048604;28;20454;-69
2021/12/06 02:03:44;;;;;;;121.93;37.95;;;;;;;3.65;64.27;99287.19;5048988;28;20064;-69
2021/12/06 02:06:11;;;;;;;128.20;38.38;;;;;;;3.66;64.22;99301.13;5048059;28;20068;-69
2021/12/06 02:08:39;;;;;;;108.50;37.38;;;;;;;3.64;64.34;99302.03;5047662;28;20388;-68
2021/12/06 02:11:07;;;;;;;147.73;45.35;;;;;;;3.65;64.24;99302.88;5049286;28;20055;-69
2021/12/06 02:13:42;;;;;;;126.00;38.88;;;;;;;3.68;64.30;99299.25;5049190;28;20080;-69
2021/12/06 02:16:09;;;;;;;;;;;;;;;3.91;63.60;99303.94;5049730;28;20051;-69
2021/12/06 02:18:44;;;;;;;114.63;33.30;;;;;;;3.72;63.72;99309.41;5050189;28;20358;-68
2021/12/06 02:21:19;;;;;;;104.30;33.92;;;;;;;3.71;63.97;99310.34;5048998;28;20049;-69
2021/12/06 02:23:47;;;;;;;139.07;44.47;;;;;;;3.67;64.14;99305.38;5048009;28;20477;-69
2021/12/06 02:26:15;;;;;;;99.25;28.05;;;;;;;3.66;64.11;99308.94;5048472;28;20094;-69
2021/12/06 02:28:44;;;;;;;99.65;29.35;;;;;;;3.63;64.24;99308.19;5048176;28;20059;-68
2021/12/06 02:31:12;;;;;;;116.75;34.78;;;;;;;3.64;64.02;99309.03;5048724;28;20124;-68
2021/12/06 02:33:39;;;;;;;110.18;32.63;;;;;;;3.60;64.22;99308.38;5048479;28;20112;-67
2021/12/06 02:36:07;;;;;;;110.40;34.85;;;;;;;3.58;64.14;99305.03;5048876;28;20049;-71
2021/12/06 02:38:36;;;;;;;120.60;33.47;;;;;;;3.61;64.27;99306.59;5046754;28;20052;-69
2021/12/06 02:41:03;;;;;;;147.10;39.55;;;;;;;3.62;64.29;99313.50;5048779;28;20527;-68
2021/12/06 02:43:33;;;;;;;102.88;30.33;;;;;;;3.62;64.10;99316.97;5049053;28;20051;-68
2021/12/06 02:46:00;;;;;;;102.95;35.40;;;;;;;3.59;64.33;99309.28;5048251;28;20487;-69
2021/12/06 02:48:28;;;;;;;112.22;37.25;;;;;;;3.59;64.44;99311.91;5048275;28;20049;-73
2021/12/06 02:50:59;;;;;;;82.18;26.13;;;;;;;3.59;64.37;99317.13;5048502;28;20345;-69
2021/12/06 02:53:28;;;;;;;103.00;33.08;;;;;;;3.57;64.29;99311.16;5047925;28;20118;-68
2021/12/06 02:56:04;;;;;;;92.85;33.42;;;;;;;3.58;64.27;99315.47;5047410;28;20393;-70
2021/12/06 02:58:55;;;;;;;190.27;66.65;;;;;;;3.47;64.95;99312.63;5049534;28;20055;-69
2021/12/06 03:01:29;;;;;;;173.48;58.72;;;;;;;3.36;65.43;99313.25;5048891;28;20053;-71
2021/12/06 03:03:57;;;;;;;136.82;45.83;;;;;;;3.35;65.30;99308.09;5048425;28;20514;-70
2021/12/06 03:06:24;;;;;;;120.32;37.10;;;;;;;3.41;65.31;99311.22;5046440;28;20445;-70
2021/12/06 03:08:57;;;;;;;98.57;33.72;;;;;;;3.52;65.00;99304.53;5048375;28;20049;-69
2021/12/06 03:11:29;;;;;;;96.85;32.88;;;;;;;3.56;64.87;99299.03;5048145;28;20051;-69
2021/12/06 03:13:57;;;;;;;89.72;31.52;;;;;;;3.55;64.64;99297.34;5047651;28;20049;-68
2021/12/06 03:16:25;;;;;;;77.57;26.23;;;;;;;3.54;64.92;99300.88;5047507;28;20476;-68
2021/12/06 03:18:54;;;;;;;93.22;34.42;;;;;;;3.53;64.82;99296.63;5048153;28;20460;-69
2021/12/06 03:21:22;;;;;;;86.18;30.20;;;;;;;3.55;64.73;99293.91;5047995;28;20404;-67
2021/12/06 03:23:50;;;;;;;87.43;29.63;;;;;;;3.59;64.62;99298.84;5048008;28;20067;-72
2021/12/06 03:26:17;;;;;;;85.00;27.40;;;;;;;3.54;64.84;99295.66;5048741;28;20045;-73
2021/12/06 03:28:47;;;;;;;90.63;28.67;;;;;;;3.54;65.04;99297.44;5052624;28;20098;-70
2021/12/06 03:31:15;;;;;;;71.78;27.55;;;;;;;3.55;65.14;99299.13;5058972;28;20612;-69
2021/12/06 03:33:45;;;;;;;66.03;24.45;;;;;;;3.54;64.81;99300.88;5059478;28;20121;-70
2021/12/06 03:36:14;;;;;;;48.50;20.40;;;;;;;3.50;64.88;99309.84;5062741;28;20051;-68
2021/12/06 03:38:42;;;;;;;64.25;26.88;;;;;;;3.45;65.07;99311.88;5057353;28;20044;-69
2021/12/06 03:41:10;;;;;;;59.33;22.05;;;;;;;3.47;64.96;99303.94;5058843;28;20676;-69
2021/12/06 03:43:39;;;;;;;55.13;19.63;;;;;;;3.49;65.06;99320.38;5057699;28;20059;-69
2021/12/06 03:46:08;;;;;;;66.30;23.70;;;;;;;3.50;65.07;99316.84;5048851;28;20055;-68
2021/12/06 03:48:35;;;;;;;75.88;26.50;;;;;;;3.47;65.28;99327.44;5048243;28;20059;-69
2021/12/06 03:51:02;;;;;;;90.38;31.75;;;;;;;3.49;65.16;99336.03;5048602;28;20049;-68
2021/12/06 03:53:30;;;;;;;75.55;24.67;;;;;;;3.49;65.18;99336.84;5048331;28;20381;-69
2021/12/06 03:55:57;;;;;;;52.92;21.42;;;;;;;3.53;65.03;99354.06;5048952;28;20056;-70
2021/12/06 03:58:24;;;;;;;59.20;21.42;;;;;;;3.56;65.02;99342.56;5049852;28;20067;-70
2021/12/06 04:00:52;;;;;;;57.22;22.08;;;;;;;3.57;65.02;99354.72;5048571;28;20045;-69
2021/12/06 04:03:22;;;;;;;60.92;23.08;;;;;;;3.59;65.09;99360.69;5049433;28;20047;-71
2021/12/06 04:05:49;;;;;;;58.22;22.08;;;;;;;3.55;64.98;99360.03;5049240;28;20049;-72
2021/12/06 04:08:16;;;;;;;58.78;22.42;;;;;;;3.47;65.24;99357.00;5046737;28;20052;-73
2021/12/06 04:10:43;;;;;;;62.20;22.00;;;;;;;3.45;65.27;99361.47;5047981;28;20313;-73
2021/12/06 04:13:11;;;;;;;54.88;24.17;;;;;;;3.43;65.19;99371.16;5047945;28;20045;-73
2021/12/06 04:15:40;;;;;;;46.70;18.23;;;;;;;3.35;65.43;99370.75;5047863;28;20051;-71
2021/12/06 04:18:07;;;;;;;67.25;21.50;;;;;;;3.33;65.39;99367.38;5047617;28;20053;-69
2021/12/06 04:20:36;;;;;;;56.10;20.15;;;;;;;3.34;65.44;99375.13;5047722;28;20049;-72
2021/12/06 04:23:06;;;;;;;49.17;20.60;;;;;;;3.37;65.43;99389.78;5046244;28;20053;-72
2021/12/06 04:25:33;;;;;;;75.68;29.48;;;;;;;3.35;65.44;99389.00;5047946;28;20041;-69
2021/12/06 04:28:05;;;;;;;60.03;23.85;;;;;;;3.37;65.29;99401.06;5047645;28;20052;-71
2021/12/06 04:30:33;;;;;;;56.85;23.42;;;;;;;3.40;65.42;99395.69;5047765;28;20072;-70
2021/12/06 04:33:01;;;;;;;63.17;25.23;;;;;;;3.44;65.46;99393.75;5048703;28;20048;-71
2021/12/06 04:35:30;;;;;;;60.72;24.23;;;;;;;3.51;65.44;99400.28;5048590;28;20045;-70
2021/12/06 04:37:59;;;;;;;61.45;24.38;;;;;;;3.56;65.11;99406.06;5047550;28;20052;-70
2021/12/06 04:40:28;;;;;;;69.35;27.10;;;;;;;3.59;65.08;99408.50;5047930;28;20055;-72
2021/12/06 04:42:55;;;;;;;51.03;19.90;;;;;;;3.57;65.08;99412.16;5048187;28;20045;-69
2021/12/06 04:45:23;;;;;;;62.92;23.83;;;;;;;3.51;65.25;99408.13;5048005;28;20049;-69
2021/12/06 04:47:50;;;;;;;60.60;21.00;;;;;;;3.52;65.50;99417.63;5047058;28;20135;-72
2021/12/06 04:50:19;;;;;;;42.97;16.05;;;;;;;3.52;65.44;99414.19;5047277;28;20071;-71
2021/12/06 04:52:47;;;;;;;51.58;20.73;;;;;;;3.47;65.37;99406.59;5046562;28;20423;-72
2021/12/06 04:55:22;;;;;;;58.05;22.27;;;;;;;3.48;65.45;99405.69;5045958;28;20059;-67
2021/12/06 04:57:49;;;;;;;47.42;19.35;;;;;;;3.52;65.37;99401.13;5046695;28;20049;-67
2021/12/06 05:00:20;;;;;;;63.58;25.83;;;;;;;3.53;65.45;99397.56;5045752;28;20045;-70
2021/12/06 05:02:48;;;;;;;72.38;31.92;;;;;;;3.50;65.40;99396.00;5047423;28;20051;-69
2021/12/06 05:05:18;;;;;;;57.53;20.73;;;;;;;3.46;65.60;99389.28;5047384;28;20580;-72
2021/12/06 05:07:49;;;;;;;65.03;29.00;;;;;;;3.46;65.72;99394.50;5043357;28;20052;-70
2021/12/06 05:10:18;;;;;;;56.05;25.10;;;;;;;3.50;65.63;99397.78;5046933;28;20662;-71
2021/12/06 05:12:47;;;;;;;63.95;25.63;;;;;;;3.49;65.47;99393.47;5046416;28;20053;-72
2021/12/06 05:15:15;;;;;;;51.38;19.02;;;;;;;3.44;65.33;99397.19;5046241;28;20053;-70
2021/12/06 05:17:44;;;;;;;53.90;19.98;;;;;;;3.43;65.71;99392.88;5046478;28;20697;-71
2021/12/06 05:20:13;;;;;;;58.33;23.80;;;;;;;3.44;65.51;99385.91;5046619;28;20049;-70
2021/12/06 05:22:41;;;;;;;54.75;21.88;;;;;;;3.48;65.65;99386.56;5044307;28;20045;-71
2021/12/06 05:25:09;;;;;;;51.95;17.75;;;;;;;3.49;65.71;99378.63;5045045;28;20041;-71
2021/12/06 05:27:39;;;;;;;44.78;17.50;;;;;;;3.48;65.44;99381.34;5045404;28;20087;-70
2021/12/06 05:30:11;;;;;;;51.53;21.50;;;;;;;3.43;65.95;99379.81;5048592;28;20067;-72
2021/12/06 05:32:38;;;;;;;24.90;12.80;;;;;;;3.42;65.62;99380.78;5046984;28;20139;-68
2021/12/06 05:35:08;;;;;;;34.72;14.20;;;;;;;3.40;65.70;99387.00;5046603;28;20041;-70
2021/12/06 05:37:37;;;;;;;51.28;19.00;;;;;;;3.35;65.61;99382.06;5044567;28;20128;-70
2021/12/06 05:40:07;;;;;;;31.88;13.10;;;;;;;3.35;65.56;99391.63;5046047;28;20048;-72
2021/12/06 05:42:34;;;;;;;32.00;16.52;;;;;;;3.35;65.58;99383.78;5046221;28;20045;-72
2021/12/06 05:45:04;;;;;;;44.03;17.15;;;;;;;3.36;65.85;99385.50;5045534;28;20132;-68
2021/12/06 05:47:31;;;;;;;37.70;15.88;;;;;;;3.37;65.85;99400.25;5045863;28;20507;-70
2021/12/06 05:49:58;;;;;;;22.13;11.48;;;;;;;3.41;65.69;99402.56;5045808;28;20053;-68
2021/12/06 05:52:26;;;;;;;33.30;16.25;;;;;;;3.43;65.53;99410.31;5045129;28;20055;-68
2021/12/06 05:54:53;;;;;;;47.85;21.88;;;;;;;3.46;65.66;99412.75;5046281;28;20053;-67
2021/12/06 05:57:20;;;;;;;36.58;17.23;;;;;;;3.47;65.49;99406.59;5045752;28;20049;-70
2021/12/06 05:59:47;;;;;;;40.35;17.67;;;;;;;3.45;65.67;99406.69;5046537;28;20136;-68
2021/12/06 06:02:17;;;;;;;40.90;17.73;;;;;;;3.46;65.56;99412.75;5054396;28;20179;-70
2021/12/06 06:04:44;;;;;;;32.13;16.08;;;;;;;3.40;65.66;99423.53;5047436;28;20165;-75
2021/12/06 06:07:11;;;;;;;29.30;15.70;;;;;;;3.40;65.76;99437.44;5046662;28;20139;-73
2021/12/06 06:09:39;;;;;;;29.17;14.70;;;;;;;3.40;65.59;99442.66;5051509;28;20110;-73
2021/12/06 06:12:06;;;;;;;38.10;17.02;;;;;;;3.38;65.83;99438.44;5050592;28;20049;-70
2021/12/06 06:14:34;;;;;;;31.73;17.17;;;;;;;3.34;65.85;99437.78;5030032;28;20049;-73
2021/12/06 06:17:09;;;;;;;29.88;14.70;;;;;;;3.38;65.79;99451.50;5048056;28;20049;-69
2021/12/06 06:19:39;;;;;;;34.37;16.23;;;;;;;3.42;65.94;99453.00;5047553;28;20386;-70
2021/12/06 06:22:06;;;;;;;39.00;15.98;;;;;;;3.45;65.52;99465.88;5048344;28;20049;-69
2021/12/06 06:24:33;;;;;;;32.55;16.13;;;;;;;3.49;65.86;99475.22;5046309;28;20466;-71
2021/12/06 06:27:00;;;;;;;34.13;14.60;;;;;;;3.49;65.55;99477.84;5048184;28;20493;-69
2021/12/06 06:29:28;;;;;;;34.35;16.65;;;;;;;3.48;65.66;99485.78;5048601;28;20469;-73
2021/12/06 06:31:55;;;;;;;32.60;15.23;;;;;;;3.51;65.71;99485.59;5046807;28;20052;-68
2021/12/06 06:34:22;;;;;;;31.08;15.52;;;;;;;3.51;65.60;99496.03;5047409;28;20053;-68
2021/12/06 06:36:51;;;;;;;43.75;20.63;;;;;;;3.55;65.64;99502.78;5057941;28;20334;-69
2021/12/06 06:39:21;;;;;;;39.67;18.52;;;;;;;3.57;65.44;99507.00;5055805;28;20539;-68
2021/12/06 06:41:49;;;;;;;45.67;20.95;;;;;;;3.61;65.35;99508.50;5065180;28;20071;-67
2021/12/06 06:44:17;;;;;;;37.03;19.48;;;;;;;3.62;65.33;99504.13;5066789;28;20048;-68
2021/12/06 06:46:44;;;;;;;41.75;20.83;;;;;;;3.56;65.53;99509.69;5070512;28;20044;-67
2021/12/06 06:49:12;;;;;;;49.95;24.55;;;;;;;3.59;65.51;99507.75;5068418;28;20062;-68
2021/12/06 06:51:40;;;;;;;47.60;21.75;;;;;;;3.56;65.54;99500.06;5069354;28;20118;-69
2021/12/06 06:54:10;;;;;;;33.75;17.95;;;;;;;3.58;65.63;99511.28;5069412;28;20091;-71
2021/12/06 06:56:37;;;;;;;39.63;21.17;;;;;;;3.57;65.65;99500.94;5069508;28;20143;-68
2021/12/06 06:59:05;;;;;;;42.25;19.58;;;;;;;3.59;65.59;99510.34;5069196;28;20044;-69
2021/12/06 07:01:32;;;;;;;68.38;28.88;;;;;;;3.61;65.42;99500.66;5069780;28;20080;-68
2021/12/06 07:03:59;;;;;;;51.75;21.20;;;;;;;3.55;65.44;99500.19;5069245;28;20048;-73
2021/12/06 07:06:28;;;;;;;31.48;16.45;;;;;;;3.53;65.46;99497.66;5067424;28;20135;-68
2021/12/06 07:08:57;;;;;;;34.45;18.73;;;;;;;3.55;65.43;99502.78;5068707;28;20711;-71
2021/12/06 07:11:27;;;;;;;34.70;16.80;;;;;;;3.54;65.42;99514.97;5068339;28;20076;-69
2021/12/06 07:13:55;;;;;;;40.50;20.98;;;;;;;3.51;65.67;99490.81;5066640;28;20052;-68
2021/12/06 07:16:22;;;;;;;61.10;26.35;;;;;;;3.48;65.71;99491.84;5067757;28;20051;-68
2021/12/06 07:18:49;;;;;;;56.08;31.75;;;;;;;3.30;65.75;99479.81;5066434;28;20048;-68
2021/12/06 07:21:17;;;;;;;78.35;39.65;;;;;;;3.16;66.03;99481.38;5068294;28;20051;-70
2021/12/06 07:23:45;;;;;;;83.43;39.58;;;;;;;3.14;66.08;99491.06;5068200;28;20114;-70
2021/12/06 07:26:15;;;;;;;45.28;19.25;;;;;;;3.24;65.98;99500.09;5067155;28;20058;-69
2021/12/06 07:28:46;;;;;;;37.33;15.57;;;;;;;3.36;65.80;99508.16;5067155;28;20486;-71
2021/12/06 07:31:14;;;;;;;41.33;19.45;;;;;;;3.47;65.39;99521.47;5066683;28;20094;-70
2021/12/06 07:33:42;;;;;;;37.05;18.08;;;;;;;3.54;65.40;99524.59;5067118;28;20044;-74
2021/12/06 07:36:09;;;;;;;30.67;17.75;;;;;;;3.56;65.38;99520.97;5066834;28;20051;-73
2021/12/06 07:38:37;;;;;;;35.88;17.30;;;;;;;3.51;65.44;99517.78;5066190;28;20048;-74
2021/12/06 07:41:06;;;;;;;26.23;13.88;;;;;;;3.49;65.43;99519.59;5068150;28;20135;-73
2021/12/06 07:43:34;;;;;;;26.88;14.75;;;;;;;3.51;65.48;99515.16;5065993;28;20100;-67
2021/12/06 07:46:03;;;;;;;24.10;12.15;;;;;;;3.55;65.37;99511.47;5068286;28;20040;-72
2021/12/06 07:48:30;;;;;;;28.30;14.43;;;;;;;3.59;65.34;99517.34;5066516;28;20048;-73
2021/12/06 07:50:59;;;;;;;30.02;14.70;;;;;;;3.60;65.24;99519.88;5069102;28;20044;-71
2021/12/06 07:53:27;;;;;;;27.33;16.10;;;;;;;3.53;65.33;99510.72;5070037;28;20136;-70
2021/12/06 07:55:54;;;;;;;26.60;12.82;;;;;;;3.51;65.37;99512.56;5065698;28;20394;-70
2021/12/06 07:58:22;;;;;;;38.10;21.52;;;;;;;3.45;65.45;99508.50;5068006;28;20055;-71
2021/12/06 08:00:52;;;;;;;23.80;13.95;;;;;;;3.48;65.50;99499.66;5070294;28;20045;-69
2021/12/06 08:03:22;;;;;;;25.88;14.30;;;;;;;3.53;65.37;99496.78;5070186;28;20049;-72
2021/12/06 08:05:51;;;;;;;23.60;13.38;;;;;;;3.56;65.26;99501.84;5072646;28;20041;-69
2021/12/06 08:08:22;;;;;;;26.58;13.00;;;;;;;3.60;65.27;99512.06;5069969;28;20047;-70
2021/12/06 08:10:52;;;;;;;25.02;12.68;;;;;;;3.57;65.13;99514.81;5067274;28;20048;-67
2021/12/06 08:13:21;;;;;;;30.90;16.05;;;;;;;3.51;65.28;99523.00;5070332;28;20044;-66
2021/12/06 08:15:51;;;;;;;29.55;15.32;;;;;;;3.55;65.27;99521.91;5071693;28;20687;-67
2021/12/06 08:18:18;;;;;;;35.90;18.92;;;;;;;3.56;65.30;99515.72;5071089;28;20083;-67
2021/12/06 08:20:47;;;;;;;29.98;14.38;;;;;;;3.60;65.28;99509.44;5066670;28;20126;-68
2021/12/06 08:23:16;;;;;;;32.58;16.88;;;;;;;3.55;65.28;99514.06;5071423;28;20161;-67
2021/12/06 08:25:46;;;;;;;38.40;19.27;;;;;;;3.56;65.36;99526.19;5070884;28;20136;-67
2021/12/06 08:28:13;;;;;;;40.92;20.35;;;;;;;3.56;65.43;99536.63;5067953;28;20072;-68
2021/12/06 08:30:40;;;;;;;28.67;16.05;;;;;;;3.54;65.25;99538.47;5067082;28;20494;-69
2021/12/06 08:33:08;;;;;;;34.05;14.23;;;;;;;3.59;65.33;99554.75;5064775;28;20086;-70
2021/12/06 08:35:37;;;;;;;28.15;15.82;;;;;;;3.67;65.23;99548.25;5066627;28;20076;-68
2021/12/06 08:38:07;;;;;;;30.88;15.05;;;;;;;3.67;65.11;99548.25;5064202;28;20051;-66
2021/12/06 08:40:37;;;;;;;26.23;14.10;;;;;;;3.64;65.20;99563.16;5069716;28;20104;-69
2021/12/06 08:43:04;;;;;;;30.38;17.13;;;;;;;3.66;65.13;99575.31;5072228;28;20048;-69
2021/12/06 08:45:33;;;;;;;27.25;14.60;;;;;;;3.69;65.03;99569.91;5069329;28;20052;-68
2021/12/06 08:48:00;;;;;;;20.25;12.10;;;;;;;3.58;65.25;99575.72;5069344;28;20132;-67
2021/12/06 08:50:30;;;;;;;25.15;14.05;;;;;;;3.48;65.24;99583.22;5071622;28;20041;-67
2021/12/06 08:52:57;;;;;;;26.05;13.50;;;;;;;3.50;65.22;99583.97;5077753;28;20155;-67
2021/12/06 08:55:28;;;;;;;28.73;14.07;;;;;;;3.55;65.34;99581.13;5068889;28;20055;-68
2021/12/06 08:57:56;;;;;;;30.40;14.38;;;;;;;3.53;65.17;99583.81;5073889;28;20083;-68
2021/12/06 09:00:25;;;;;;;22.60;13.20;;;;;;;3.48;65.27;99575.38;5071073;28;20048;-68
2021/12/06 09:02:53;;;;;;;27.83;14.05;;;;;;;3.47;65.30;99578.91;5063755;28;20076;-67
2021/12/06 09:05:23;;;;;;;31.45;16.55;;;;;;;3.50;65.20;99578.75;5068293;28;20100;-68
2021/12/06 09:07:50;;;;;;;25.80;14.88;;;;;;;3.56;65.15;99583.63;5067608;28;20556;-67
2021/12/06 09:10:17;;;;;;;31.50;15.05;;;;;;;3.54;65.17;99588.09;5070650;28;20053;-70
2021/12/06 09:12:48;;;;;;;33.58;16.63;;;;;;;3.52;65.36;99589.94;5068735;28;20106;-67
2021/12/06 09:15:17;;;;;;;28.85;14.63;;;;;;;3.47;65.37;99599.78;5065598;28;20044;-67
2021/12/06 09:17:44;;;;;;;30.48;14.82;;;;;;;3.40;65.42;99591.47;5070132;28;20055;-67
2021/12/06 09:20:14;;;;;;;26.70;14.15;;;;;;;3.40;65.48;99588.00;5069718;28;20128;-68
2021/12/06 09:22:42;;;;;;;29.73;12.25;;;;;;;3.36;65.63;99591.69;5060976;28;20048;-69
2021/12/06 09:25:10;;;;;;;31.73;16.92;;;;;;;3.36;65.43;99587.31;5062621;28;20709;-68
2021/12/06 09:27:39;;;;;;;40.00;19.10;;;;;;;3.39;65.30;99589.75;5063103;28;20047;-67
2021/12/06 09:30:11;;;;;;;34.55;15.70;;;;;;;3.47;65.28;99583.28;5064474;28;20134;-66
2021/12/06 09:32:39;;;;;;;38.40;18.70;;;;;;;3.50;65.32;99589.19;5065768;28;20054;-67
2021/12/06 09:35:10;;;;;;;25.98;13.60;;;;;;;3.47;65.26;99589.34;5063793;28;20044;-68
2021/12/06 09:37:39;;;;;;;35.95;17.52;;;;;;;3.41;65.36;99592.31;5062689;28;20080;-67
2021/12/06 09:40:08;;;;;;;38.38;18.88;;;;;;;3.41;65.35;99590.53;5064479;28;20625;-68
2021/12/06 09:42:37;;;;;;;40.80;18.50;;;;;;;3.43;65.26;99587.84;5064674;28;20045;-67
2021/12/06 09:45:08;;;;;;;58.45;33.58;;;;;;;3.39;65.25;99587.16;5065617;28;20055;-67
2021/12/06 09:47:37;;;;;;;48.50;27.10;;;;;;;3.33;65.55;99586.63;5067104;28;20049;-71
2021/12/06 09:50:05;;;;;;;34.88;16.67;;;;;;;3.41;65.42;99589.69;5064161;28;20109;-69
2021/12/06 09:52:32;;;;;;;51.72;27.48;;;;;;;3.42;65.24;99591.34;5063263;28;20124;-68
2021/12/06 09:55:00;;;;;;;33.92;18.88;;;;;;;3.50;65.00;99594.41;5064396;28;20056;-71
2021/12/06 09:57:27;;;;;;;35.08;17.13;;;;;;;3.44;65.08;99592.97;5064492;28;20056;-68
2021/12/06 09:59:54;;;;;;;40.75;17.95;;;;;;;3.47;65.19;99589.34;5066679;28;20625;-67
2021/12/06 10:02:23;;;;;;;41.40;21.33;;;;;;;3.41;65.22;99590.53;5064055;28;20048;-68
2021/12/06 10:04:55;;;;;;;54.25;25.80;;;;;;;3.46;65.26;99590.28;5063190;28;20052;-68
2021/12/06 10:07:24;;;;;;;57.28;26.42;;;;;;;3.48;65.13;99580.59;5060267;28;20076;-69
2021/12/06 10:09:51;;;;;;;42.50;18.95;;;;;;;3.52;65.04;99582.13;5063172;28;20131;-67
2021/12/06 10:12:20;;;;;;;36.90;17.23;;;;;;;3.55;65.02;99578.50;5062438;28;20123;-68
2021/12/06 10:14:47;;;;;;;42.08;19.90;;;;;;;3.53;64.94;99589.03;5061643;28;20083;-67
2021/12/06 10:17:16;;;;;;;43.75;19.42;;;;;;;3.57;64.83;99592.31;5062803;28;20052;-69
2021/12/06 10:19:44;;;;;;;40.47;17.45;;;;;;;3.60;64.98;99598.22;5064787;28;20056;-68
2021/12/06 10:22:14;;;;;;;58.50;29.92;;;;;;;3.52;64.73;99596.94;5067213;28;20252;-68
2021/12/06 10:24:41;;;;;;;39.45;18.25;;;;;;;3.47;64.97;99594.56;5066747;28;20048;-69
2021/12/06 10:27:11;;;;;;;41.75;18.67;;;;;;;3.50;64.83;99589.19;5066721;28;20656;-68
2021/12/06 10:29:44;;;;;;;35.50;15.32;;;;;;;3.48;65.01;99592.81;5066249;28;20044;-67
2021/12/06 10:32:15;;;;;;;56.47;31.08;;;;;;;3.36;65.11;99582.09;5067283;28;20623;-69
2021/12/06 10:34:47;;;;;;;39.88;19.13;;;;;;;3.39;65.15;99583.72;5066260;28;20064;-67
2021/12/06 10:37:31;;;;;;;41.17;16.75;;;;;;;3.48;64.98;99582.38;5065806;28;20048;-68
2021/12/06 10:39:59;;;;;;;61.40;29.80;;;;;;;3.47;64.88;99583.28;5065428;28;20120;-68
2021/12/06 10:42:28;;;;;;;37.22;16.73;;;;;;;3.46;65.00;99590.28;5067888;28;20150;-69
2021/12/06 10:44:55;;;;;;;48.00;20.50;;;;;;;3.43;64.89;99586.06;5068231;28;20044;-69
2021/12/06 10:47:22;;;;;;;39.90;21.27;;;;;;;3.42;64.97;99591.34;5066928;28;20048;-69
2021/12/06 10:49:50;;;;;;;83.30;36.42;;;;;;;3.33;65.03;99589.25;5066582;28;20055;-69
2021/12/06 10:52:26;;;;;;;109.65;49.28;;;;;;;3.27;65.14;99600.84;5065872;28;20044;-67
2021/12/06 10:54:55;;;;;;;57.65;25.55;;;;;;;3.38;65.06;99600.28;5065060;28;20384;-68
2021/12/06 10:57:22;;;;;;;43.60;20.42;;;;;;;3.43;64.76;99604.34;5064332;28;20055;-68
2021/12/06 10:59:49;;;;;;;63.75;27.27;;;;;;;3.38;64.85;99605.50;5065524;28;20250;-67
2021/12/06 11:02:18;;;;;;;139.02;59.30;;;;;;;3.24;64.86;99603.63;5063550;28;20102;-66
2021/12/06 11:04:47;;;;;;;162.55;69.65;;;;;;;3.22;65.06;99611.56;5068514;28;20052;-66
2021/12/06 11:07:14;;;;;;;49.58;22.77;;;;;;;3.30;64.93;99608.53;5063272;28;20044;-67
2021/12/06 11:09:46;;;;;;;47.47;20.80;;;;;;;3.32;65.11;99605.84;5066226;28;20468;-69
2021/12/06 11:12:20;;;;;;;38.58;19.85;;;;;;;3.37;65.08;99598.63;5063357;28;20127;-65
2021/12/06 11:14:49;;;;;;;57.40;26.10;;;;;;;3.37;64.87;99599.44;5063494;28;20052;-67
2021/12/06 11:17:19;;;;;;;165.68;78.15;;;;;;;3.22;64.97;99608.06;5062625;28;20133;-68
2021/12/06 11:19:46;;;;;;;132.13;64.20;;;;;;;3.03;64.71;99600.38;5065682;28;20044;-67
2021/12/06 11:22:20;;;;;;;102.32;45.03;;;;;;;3.00;64.95;99597.94;5062341;28;20131;-68
2021/12/06 11:24:51;;;;;;;108.22;51.22;;;;;;;2.94;64.86;99595.66;5063943;28;20049;-69
2021/12/06 11:27:24;;;;;;;108.13;60.15;;;;;;;2.90;64.93;99601.91;5062902;28;20730;-68
2021/12/06 11:29:53;;;;;;;89.82;45.17;;;;;;;2.99;65.02;99598.84;5063831;28;20101;-70
2021/12/06 11:32:22;;;;;;;88.55;48.78;;;;;;;2.94;65.00;99591.25;5064560;28;20052;-71
2021/12/06 11:34:54;;;;;;;81.85;45.75;;;;;;;2.97;64.81;99590.25;5065367;28;20041;-69
2021/12/06 11:37:26;;;;;;;45.35;23.83;;;;;;;3.07;64.84;99586.25;5062010;28;20150;-68